sensor_id;sensor_type;location;lat;lon;timestamp;temperature;humidity
11908;DHT22;6014;47.690;9.130;2022-08-18T00:01:05;17.50;99.90
11908;DHT22;6014;47.690;9.130;2022-08-18T00:03:33;17.60;99.90
11908;DHT22;6014;47.690;9.130;2022-08-18T00:06:23;17.60;99.90
11908;DHT22;6014;47.690;9.130;2022-08-18T00:08:55;17.60;99.90
11908;DHT22;6014;47.690;9.130;2022-08-18T00:11:24;17.60;99.90
11908;DHT22;6014;47.690;9.130;2022-08-18T00:13:53;17.50;99.90
11908;DHT22;6014;47.690;9.130;2022-08-18T00:16:21;17.50;99.90
11908;DHT22;6014;47.690;9.130;2022-08-18T00:18:51;17.50;99.90
11908;DHT22;6014;47.690;9.130;2022-08-18T00:21:20;17.50;99.90
11908;DHT22;6014;47.690;9.130;2022-08-18T00:24:00;17.50;99.90
11908;DHT22;6014;47.690;9.130;2022-08-18T00:26:29;17.50;99.90
11908;DHT22;6014;47.690;9.130;2022-08-18T00:29:03;17.50;99.90
11908;DHT22;6014;47.690;9.130;2022-08-18T00:31:36;17.40;99.90
11908;DHT22;6014;47.690;9.130;2022-08-18T00:34:05;17.30;99.90
11908;DHT22;6014;47.690;9.130;2022-08-18T00:36:33;17.20;99.90
11908;DHT22;6014;47.690;9.130;2022-08-18T00:39:03;17.10;99.90
11908;DHT22;6014;47.690;9.130;2022-08-18T00:41:32;17.00;99.90
11908;DHT22;6014;47.690;9.130;2022-08-18T00:44:00;17.00;99.90
11908;DHT22;6014;47.690;9.130;2022-08-18T00:46:32;16.90;99.90
11908;DHT22;6014;47.690;9.130;2022-08-18T00:49:02;16.80;99.90
11908;DHT22;6014;47.690;9.130;2022-08-18T00:51:38;16.80;99.90
11908;DHT22;6014;47.690;9.130;2022-08-18T00:54:11;16.70;99.90
11908;DHT22;6014;47.690;9.130;2022-08-18T00:56:44;16.60;99.90
11908;DHT22;6014;47.690;9.130;2022-08-18T00:59:19;16.50;99.90
11908;DHT22;6014;47.690;9.130;2022-08-18T01:01:51;16.50;99.90
11908;DHT22;6014;47.690;9.130;2022-08-18T01:04:24;16.50;99.90
11908;DHT22;6014;47.690;9.130;2022-08-18T01:06:55;16.60;99.90
11908;DHT22;6014;47.690;9.130;2022-08-18T01:09:28;16.60;99.90
11908;DHT22;6014;47.690;9.130;2022-08-18T01:11:58;16.60;99.90
11908;DHT22;6014;47.690;9.130;2022-08-18T01:14:46;16.50;99.90
11908;DHT22;6014;47.690;9.130;2022-08-18T01:17:15;16.60;99.90
11908;DHT22;6014;47.690;9.130;2022-08-18T01:20:02;16.60;99.90
11908;DHT22;6014;47.690;9.130;2022-08-18T01:22:59;16.60;99.90
11908;DHT22;6014;47.690;9.130;2022-08-18T01:25:31;16.70;99.90
11908;DHT22;6014;47.690;9.130;2022-08-18T01:28:17;16.70;99.90
11908;DHT22;6014;47.690;9.130;2022-08-18T01:30:49;16.70;99.90
11908;DHT22;6014;47.690;9.130;2022-08-18T01:33:18;16.70;99.90
11908;DHT22;6014;47.690;9.130;2022-08-18T01:35:53;16.70;99.90
11908;DHT22;6014;47.690;9.130;2022-08-18T01:38:23;16.70;99.90
11908;DHT22;6014;47.690;9.130;2022-08-18T01:40:53;16.70;99.90
11908;DHT22;6014;47.690;9.130;2022-08-18T01:43:41;16.70;99.90
11908;DHT22;6014;47.690;9.130;2022-08-18T01:46:09;16.70;99.90
11908;DHT22;6014;47.690;9.130;2022-08-18T01:48:38;16.60;99.90
11908;DHT22;6014;47.690;9.130;2022-08-18T01:51:14;16.60;99.90
11908;DHT22;6014;47.690;9.130;2022-08-18T01:53:47;16.60;99.90
11908;DHT22;6014;47.690;9.130;2022-08-18T01:56:19;16.60;99.90
11908;DHT22;6014;47.690;9.130;2022-08-18T01:58:54;16.50;99.90
11908;DHT22;6014;47.690;9.130;2022-08-18T02:01:23;16.60;99.90
11908;DHT22;6014;47.690;9.130;2022-08-18T02:04:04;16.60;99.90
11908;DHT22;6014;47.690;9.130;2022-08-18T02:06:53;16.50;99.90
11908;DHT22;6014;47.690;9.130;2022-08-18T02:09:24;16.50;99.90
11908;DHT22;6014;47.690;9.130;2022-08-18T02:11:55;16.50;99.90
11908;DHT22;6014;47.690;9.130;2022-08-18T02:14:23;16.50;99.90
11908;DHT22;6014;47.690;9.130;2022-08-18T02:16:55;16.40;99.90
11908;DHT22;6014;47.690;9.130;2022-08-18T02:19:32;16.40;99.90
11908;DHT22;6014;47.690;9.130;2022-08-18T02:22:01;16.40;99.90
11908;DHT22;6014;47.690;9.130;2022-08-18T02:24:31;16.40;99.90
11908;DHT22;6014;47.690;9.130;2022-08-18T02:26:59;16.40;99.90
11908;DHT22;6014;47.690;9.130;2022-08-18T02:29:28;16.40;99.90
11908;DHT22;6014;47.690;9.130;2022-08-18T02:31:57;16.40;99.90
11908;DHT22;6014;47.690;9.130;2022-08-18T02:34:26;16.40;99.90
11908;DHT22;6014;47.690;9.130;2022-08-18T02:36:54;16.40;99.90
11908;DHT22;6014;47.690;9.130;2022-08-18T02:39:23;16.40;99.90
11908;DHT22;6014;47.690;9.130;2022-08-18T02:41:52;16.50;99.90
11908;DHT22;6014;47.690;9.130;2022-08-18T02:44:21;16.40;99.90
11908;DHT22;6014;47.690;9.130;2022-08-18T02:46:51;16.30;99.90
11908;DHT22;6014;47.690;9.130;2022-08-18T02:49:20;16.30;99.90
11908;DHT22;6014;47.690;9.130;2022-08-18T02:51:49;16.30;99.90
11908;DHT22;6014;47.690;9.130;2022-08-18T02:54:18;16.40;99.90
11908;DHT22;6014;47.690;9.130;2022-08-18T02:56:48;16.40;99.90
11908;DHT22;6014;47.690;9.130;2022-08-18T02:59:20;16.50;99.90
11908;DHT22;6014;47.690;9.130;2022-08-18T03:01:51;16.30;99.90
11908;DHT22;6014;47.690;9.130;2022-08-18T03:04:24;16.30;99.90
11908;DHT22;6014;47.690;9.130;2022-08-18T03:06:57;16.30;99.90
11908;DHT22;6014;47.690;9.130;2022-08-18T03:09:27;16.30;99.90
11908;DHT22;6014;47.690;9.130;2022-08-18T03:11:57;16.30;99.90
11908;DHT22;6014;47.690;9.130;2022-08-18T03:14:27;16.30;99.90
11908;DHT22;6014;47.690;9.130;2022-08-18T03:16:56;16.20;99.90
11908;DHT22;6014;47.690;9.130;2022-08-18T03:19:26;16.20;99.90
11908;DHT22;6014;47.690;9.130;2022-08-18T03:21:55;16.20;99.90
11908;DHT22;6014;47.690;9.130;2022-08-18T03:24:30;16.20;99.90
11908;DHT22;6014;47.690;9.130;2022-08-18T03:26:59;16.20;99.90
11908;DHT22;6014;47.690;9.130;2022-08-18T03:29:30;16.20;99.90
11908;DHT22;6014;47.690;9.130;2022-08-18T03:31:59;16.20;99.90
11908;DHT22;6014;47.690;9.130;2022-08-18T03:34:28;16.10;99.90
11908;DHT22;6014;47.690;9.130;2022-08-18T03:36:58;16.10;99.90
11908;DHT22;6014;47.690;9.130;2022-08-18T03:39:27;16.20;99.90
11908;DHT22;6014;47.690;9.130;2022-08-18T03:41:56;16.10;99.90
11908;DHT22;6014;47.690;9.130;2022-08-18T03:44:30;16.10;99.90
11908;DHT22;6014;47.690;9.130;2022-08-18T03:47:01;16.00;99.90
11908;DHT22;6014;47.690;9.130;2022-08-18T03:49:31;16.00;99.90
11908;DHT22;6014;47.690;9.130;2022-08-18T03:52:01;15.90;99.90
11908;DHT22;6014;47.690;9.130;2022-08-18T03:54:31;15.90;99.90
11908;DHT22;6014;47.690;9.130;2022-08-18T03:57:00;15.90;99.90
11908;DHT22;6014;47.690;9.130;2022-08-18T03:59:30;15.90;99.90
11908;DHT22;6014;47.690;9.130;2022-08-18T04:02:02;15.80;99.90
11908;DHT22;6014;47.690;9.130;2022-08-18T04:04:30;15.80;99.90
11908;DHT22;6014;47.690;9.130;2022-08-18T04:07:01;15.80;99.90
11908;DHT22;6014;47.690;9.130;2022-08-18T04:09:32;15.80;99.90
11908;DHT22;6014;47.690;9.130;2022-08-18T04:12:04;15.80;99.90
11908;DHT22;6014;47.690;9.130;2022-08-18T04:14:46;15.80;99.90
11908;DHT22;6014;47.690;9.130;2022-08-18T04:17:16;15.80;99.90
11908;DHT22;6014;47.690;9.130;2022-08-18T04:19:46;15.70;99.90
11908;DHT22;6014;47.690;9.130;2022-08-18T04:22:14;15.70;99.90
11908;DHT22;6014;47.690;9.130;2022-08-18T04:24:44;15.80;99.90
11908;DHT22;6014;47.690;9.130;2022-08-18T04:27:16;15.90;99.90
11908;DHT22;6014;47.690;9.130;2022-08-18T04:29:46;16.00;99.90
11908;DHT22;6014;47.690;9.130;2022-08-18T04:32:14;16.10;99.90
11908;DHT22;6014;47.690;9.130;2022-08-18T04:34:43;16.20;99.90
11908;DHT22;6014;47.690;9.130;2022-08-18T04:37:12;16.20;99.90
11908;DHT22;6014;47.690;9.130;2022-08-18T04:39:41;16.20;99.90
11908;DHT22;6014;47.690;9.130;2022-08-18T04:42:10;16.20;99.90
11908;DHT22;6014;47.690;9.130;2022-08-18T04:44:38;16.20;99.90
11908;DHT22;6014;47.690;9.130;2022-08-18T04:47:09;16.30;99.90
11908;DHT22;6014;47.690;9.130;2022-08-18T04:49:42;16.30;99.90
11908;DHT22;6014;47.690;9.130;2022-08-18T04:52:10;16.30;99.90
11908;DHT22;6014;47.690;9.130;2022-08-18T04:55:08;16.30;99.90
11908;DHT22;6014;47.690;9.130;2022-08-18T04:57:37;16.30;99.90
11908;DHT22;6014;47.690;9.130;2022-08-18T05:00:07;16.30;99.90
11908;DHT22;6014;47.690;9.130;2022-08-18T05:02:39;16.30;99.90
11908;DHT22;6014;47.690;9.130;2022-08-18T05:05:08;16.30;99.90
11908;DHT22;6014;47.690;9.130;2022-08-18T05:07:43;16.40;99.90
11908;DHT22;6014;47.690;9.130;2022-08-18T05:10:12;16.40;99.90
11908;DHT22;6014;47.690;9.130;2022-08-18T05:12:46;16.40;99.90
11908;DHT22;6014;47.690;9.130;2022-08-18T05:15:16;16.40;99.90
11908;DHT22;6014;47.690;9.130;2022-08-18T05:17:48;16.40;99.90
11908;DHT22;6014;47.690;9.130;2022-08-18T05:20:18;16.40;99.90
11908;DHT22;6014;47.690;9.130;2022-08-18T05:22:46;16.40;99.90
11908;DHT22;6014;47.690;9.130;2022-08-18T05:25:15;16.40;99.90
11908;DHT22;6014;47.690;9.130;2022-08-18T05:27:43;16.50;99.90
11908;DHT22;6014;47.690;9.130;2022-08-18T05:30:12;16.50;99.90
11908;DHT22;6014;47.690;9.130;2022-08-18T05:32:43;16.50;99.90
11908;DHT22;6014;47.690;9.130;2022-08-18T05:35:22;16.70;99.90
11908;DHT22;6014;47.690;9.130;2022-08-18T05:40:45;16.80;99.90
11908;DHT22;6014;47.690;9.130;2022-08-18T05:43:24;17.00;99.90
11908;DHT22;6014;47.690;9.130;2022-08-18T05:45:52;17.00;99.90
11908;DHT22;6014;47.690;9.130;2022-08-18T05:48:23;17.00;99.90
11908;DHT22;6014;47.690;9.130;2022-08-18T05:50:53;17.00;99.90
11908;DHT22;6014;47.690;9.130;2022-08-18T05:53:22;17.10;99.90
11908;DHT22;6014;47.690;9.130;2022-08-18T05:56:12;17.10;99.90
11908;DHT22;6014;47.690;9.130;2022-08-18T05:59:00;17.20;99.90
11908;DHT22;6014;47.690;9.130;2022-08-18T06:01:39;17.40;99.90
11908;DHT22;6014;47.690;9.130;2022-08-18T06:04:18;17.50;99.90
11908;DHT22;6014;47.690;9.130;2022-08-18T06:06:51;17.50;99.90
11908;DHT22;6014;47.690;9.130;2022-08-18T06:09:23;17.60;99.90
11908;DHT22;6014;47.690;9.130;2022-08-18T06:11:55;17.60;99.90
11908;DHT22;6014;47.690;9.130;2022-08-18T06:14:25;17.60;99.90
11908;DHT22;6014;47.690;9.130;2022-08-18T06:17:06;17.70;99.90
11908;DHT22;6014;47.690;9.130;2022-08-18T06:19:44;17.60;99.90
11908;DHT22;6014;47.690;9.130;2022-08-18T06:22:27;17.80;99.90
11908;DHT22;6014;47.690;9.130;2022-08-18T06:25:02;18.00;99.90
11908;DHT22;6014;47.690;9.130;2022-08-18T06:27:39;18.10;99.90
11908;DHT22;6014;47.690;9.130;2022-08-18T06:30:18;19.20;99.90
11908;DHT22;6014;47.690;9.130;2022-08-18T06:33:04;19.80;99.90
11908;DHT22;6014;47.690;9.130;2022-08-18T06:35:37;19.60;99.90
11908;DHT22;6014;47.690;9.130;2022-08-18T06:38:24;19.70;99.90
11908;DHT22;6014;47.690;9.130;2022-08-18T06:41:15;20.60;99.90
11908;DHT22;6014;47.690;9.130;2022-08-18T06:44:07;20.60;99.90
11908;DHT22;6014;47.690;9.130;2022-08-18T06:46:41;20.40;99.90
11908;DHT22;6014;47.690;9.130;2022-08-18T06:49:15;20.80;99.90
11908;DHT22;6014;47.690;9.130;2022-08-18T06:51:44;20.50;99.90
11908;DHT22;6014;47.690;9.130;2022-08-18T06:54:27;20.70;99.90
11908;DHT22;6014;47.690;9.130;2022-08-18T06:56:56;20.90;99.90
11908;DHT22;6014;47.690;9.130;2022-08-18T06:59:28;20.90;99.90
11908;DHT22;6014;47.690;9.130;2022-08-18T07:02:00;20.90;99.90
11908;DHT22;6014;47.690;9.130;2022-08-18T07:04:41;21.30;99.90
11908;DHT22;6014;47.690;9.130;2022-08-18T07:07:18;21.70;99.90
11908;DHT22;6014;47.690;9.130;2022-08-18T07:09:48;21.80;99.90
11908;DHT22;6014;47.690;9.130;2022-08-18T07:12:22;21.70;99.90
11908;DHT22;6014;47.690;9.130;2022-08-18T07:15:01;21.50;99.90
11908;DHT22;6014;47.690;9.130;2022-08-18T07:17:32;21.50;99.90
11908;DHT22;6014;47.690;9.130;2022-08-18T07:20:21;21.70;99.90
11908;DHT22;6014;47.690;9.130;2022-08-18T07:22:51;21.20;99.90
11908;DHT22;6014;47.690;9.130;2022-08-18T07:25:25;21.20;99.90
11908;DHT22;6014;47.690;9.130;2022-08-18T07:27:55;21.30;99.90
11908;DHT22;6014;47.690;9.130;2022-08-18T07:30:31;21.50;99.90
11908;DHT22;6014;47.690;9.130;2022-08-18T07:33:08;21.40;99.90
11908;DHT22;6014;47.690;9.130;2022-08-18T07:35:42;21.90;99.90
11908;DHT22;6014;47.690;9.130;2022-08-18T07:38:16;22.00;99.90
11908;DHT22;6014;47.690;9.130;2022-08-18T07:41:14;21.60;99.90
11908;DHT22;6014;47.690;9.130;2022-08-18T07:44:09;21.60;99.90
11908;DHT22;6014;47.690;9.130;2022-08-18T07:46:44;21.80;99.90
11908;DHT22;6014;47.690;9.130;2022-08-18T07:49:18;21.50;99.90
11908;DHT22;6014;47.690;9.130;2022-08-18T07:51:52;21.00;99.90
11908;DHT22;6014;47.690;9.130;2022-08-18T07:54:37;20.70;99.90
11908;DHT22;6014;47.690;9.130;2022-08-18T07:57:25;20.50;99.90
11908;DHT22;6014;47.690;9.130;2022-08-18T08:00:00;20.20;99.90
11908;DHT22;6014;47.690;9.130;2022-08-18T08:02:43;20.50;99.90
11908;DHT22;6014;47.690;9.130;2022-08-18T08:05:36;20.40;99.90
11908;DHT22;6014;47.690;9.130;2022-08-18T08:08:17;20.40;99.90
11908;DHT22;6014;47.690;9.130;2022-08-18T08:11:03;20.50;99.90
11908;DHT22;6014;47.690;9.130;2022-08-18T08:13:46;20.70;99.90
11908;DHT22;6014;47.690;9.130;2022-08-18T08:16:33;20.70;99.90
11908;DHT22;6014;47.690;9.130;2022-08-18T08:19:11;20.80;99.90
11908;DHT22;6014;47.690;9.130;2022-08-18T08:21:46;20.80;99.90
11908;DHT22;6014;47.690;9.130;2022-08-18T08:24:26;21.10;99.90
11908;DHT22;6014;47.690;9.130;2022-08-18T08:27:06;21.70;99.90
11908;DHT22;6014;47.690;9.130;2022-08-18T08:29:42;22.60;99.90
11908;DHT22;6014;47.690;9.130;2022-08-18T08:32:15;23.00;99.90
11908;DHT22;6014;47.690;9.130;2022-08-18T08:34:50;23.00;99.90
11908;DHT22;6014;47.690;9.130;2022-08-18T08:37:23;23.50;99.90
11908;DHT22;6014;47.690;9.130;2022-08-18T08:39:57;24.10;99.90
11908;DHT22;6014;47.690;9.130;2022-08-18T08:42:35;24.20;99.90
11908;DHT22;6014;47.690;9.130;2022-08-18T08:45:09;24.40;99.90
11908;DHT22;6014;47.690;9.130;2022-08-18T08:47:46;24.40;99.90
11908;DHT22;6014;47.690;9.130;2022-08-18T08:50:21;24.00;99.90
11908;DHT22;6014;47.690;9.130;2022-08-18T08:52:54;23.80;99.90
11908;DHT22;6014;47.690;9.130;2022-08-18T08:55:27;23.90;99.90
11908;DHT22;6014;47.690;9.130;2022-08-18T08:58:05;24.10;99.90
11908;DHT22;6014;47.690;9.130;2022-08-18T09:00:40;24.60;99.90
11908;DHT22;6014;47.690;9.130;2022-08-18T09:03:23;24.50;99.90
11908;DHT22;6014;47.690;9.130;2022-08-18T09:06:05;24.50;99.90
11908;DHT22;6014;47.690;9.130;2022-08-18T09:08:56;24.80;99.90
11908;DHT22;6014;47.690;9.130;2022-08-18T09:15:12;24.20;99.90
11908;DHT22;6014;47.690;9.130;2022-08-18T09:18:05;24.20;99.90
11908;DHT22;6014;47.690;9.130;2022-08-18T09:20:57;24.80;99.90
11908;DHT22;6014;47.690;9.130;2022-08-18T09:23:33;24.00;99.90
11908;DHT22;6014;47.690;9.130;2022-08-18T09:26:23;24.50;99.90
11908;DHT22;6014;47.690;9.130;2022-08-18T09:28:55;23.70;99.90
11908;DHT22;6014;47.690;9.130;2022-08-18T09:31:25;24.60;99.90
11908;DHT22;6014;47.690;9.130;2022-08-18T09:34:22;24.90;99.90
11908;DHT22;6014;47.690;9.130;2022-08-18T09:37:10;24.60;99.90
11908;DHT22;6014;47.690;9.130;2022-08-18T09:39:42;24.20;99.90
11908;DHT22;6014;47.690;9.130;2022-08-18T09:42:42;24.80;99.90
11908;DHT22;6014;47.690;9.130;2022-08-18T09:48:32;24.80;99.90
11908;DHT22;6014;47.690;9.130;2022-08-18T09:51:30;26.00;99.90
11908;DHT22;6014;47.690;9.130;2022-08-18T09:54:09;26.50;99.90
11908;DHT22;6014;47.690;9.130;2022-08-18T10:03:13;24.90;99.80
11908;DHT22;6014;47.690;9.130;2022-08-18T10:06:11;25.20;99.90
11908;DHT22;6014;47.690;9.130;2022-08-18T10:09:03;24.60;99.90
11908;DHT22;6014;47.690;9.130;2022-08-18T10:12:03;24.70;99.90
11908;DHT22;6014;47.690;9.130;2022-08-18T10:15:02;24.60;99.90
11908;DHT22;6014;47.690;9.130;2022-08-18T10:17:47;25.10;99.90
11908;DHT22;6014;47.690;9.130;2022-08-18T10:20:26;25.30;99.90
11908;DHT22;6014;47.690;9.130;2022-08-18T10:22:57;25.00;99.90
11908;DHT22;6014;47.690;9.130;2022-08-18T10:25:37;25.30;99.90
11908;DHT22;6014;47.690;9.130;2022-08-18T10:28:08;25.00;99.90
11908;DHT22;6014;47.690;9.130;2022-08-18T10:31:03;24.80;99.90
11908;DHT22;6014;47.690;9.130;2022-08-18T10:34:02;24.70;99.90
11908;DHT22;6014;47.690;9.130;2022-08-18T10:36:50;24.20;99.90
11908;DHT22;6014;47.690;9.130;2022-08-18T10:39:21;24.20;99.90
11908;DHT22;6014;47.690;9.130;2022-08-18T10:42:01;24.40;99.90
11908;DHT22;6014;47.690;9.130;2022-08-18T10:44:33;24.40;99.90
11908;DHT22;6014;47.690;9.130;2022-08-18T10:47:06;23.60;99.90
11908;DHT22;6014;47.690;9.130;2022-08-18T10:49:38;23.60;99.90
11908;DHT22;6014;47.690;9.130;2022-08-18T10:52:49;23.50;99.90
11908;DHT22;6014;47.690;9.130;2022-08-18T10:56:00;23.20;99.90
11908;DHT22;6014;47.690;9.130;2022-08-18T10:59:05;23.10;99.90
11908;DHT22;6014;47.690;9.130;2022-08-18T11:01:59;23.30;99.90
11908;DHT22;6014;47.690;9.130;2022-08-18T11:04:32;23.20;99.90
11908;DHT22;6014;47.690;9.130;2022-08-18T11:07:07;23.60;99.90
11908;DHT22;6014;47.690;9.130;2022-08-18T11:09:37;23.90;99.90
11908;DHT22;6014;47.690;9.130;2022-08-18T11:12:11;23.90;99.90
11908;DHT22;6014;47.690;9.130;2022-08-18T11:14:58;23.80;99.90
11908;DHT22;6014;47.690;9.130;2022-08-18T11:17:57;23.60;99.90
11908;DHT22;6014;47.690;9.130;2022-08-18T11:20:31;23.90;99.90
11908;DHT22;6014;47.690;9.130;2022-08-18T11:23:01;24.30;99.90
11908;DHT22;6014;47.690;9.130;2022-08-18T11:25:31;24.60;99.90
11908;DHT22;6014;47.690;9.130;2022-08-18T11:28:01;24.30;99.90
11908;DHT22;6014;47.690;9.130;2022-08-18T11:30:33;24.30;99.90
11908;DHT22;6014;47.690;9.130;2022-08-18T11:33:06;24.40;99.90
11908;DHT22;6014;47.690;9.130;2022-08-18T11:35:45;24.50;99.90
11908;DHT22;6014;47.690;9.130;2022-08-18T11:38:15;25.10;99.90
11908;DHT22;6014;47.690;9.130;2022-08-18T11:40:50;25.30;99.90
11908;DHT22;6014;47.690;9.130;2022-08-18T11:43:39;25.10;99.90
11908;DHT22;6014;47.690;9.130;2022-08-18T11:46:22;25.50;99.90
11908;DHT22;6014;47.690;9.130;2022-08-18T11:48:58;25.70;99.90
11908;DHT22;6014;47.690;9.130;2022-08-18T11:51:29;25.60;99.90
11908;DHT22;6014;47.690;9.130;2022-08-18T11:54:20;25.60;99.90
11908;DHT22;6014;47.690;9.130;2022-08-18T11:56:50;25.20;99.90
11908;DHT22;6014;47.690;9.130;2022-08-18T11:59:31;25.50;99.90
11908;DHT22;6014;47.690;9.130;2022-08-18T12:02:23;25.60;99.90
11908;DHT22;6014;47.690;9.130;2022-08-18T12:04:54;25.50;99.90
11908;DHT22;6014;47.690;9.130;2022-08-18T12:07:35;25.40;99.90
11908;DHT22;6014;47.690;9.130;2022-08-18T12:10:19;25.30;99.90
11908;DHT22;6014;47.690;9.130;2022-08-18T12:12:55;25.10;99.90
11908;DHT22;6014;47.690;9.130;2022-08-18T12:15:29;25.20;99.90
11908;DHT22;6014;47.690;9.130;2022-08-18T12:18:13;25.40;99.90
11908;DHT22;6014;47.690;9.130;2022-08-18T12:20:56;25.80;99.90
11908;DHT22;6014;47.690;9.130;2022-08-18T12:23:27;25.30;99.90
11908;DHT22;6014;47.690;9.130;2022-08-18T12:26:17;25.30;99.90
11908;DHT22;6014;47.690;9.130;2022-08-18T12:29:04;25.20;99.90
11908;DHT22;6014;47.690;9.130;2022-08-18T12:31:54;25.00;99.90
11908;DHT22;6014;47.690;9.130;2022-08-18T12:34:24;24.90;99.90
11908;DHT22;6014;47.690;9.130;2022-08-18T12:36:54;24.80;99.90
11908;DHT22;6014;47.690;9.130;2022-08-18T12:39:24;24.70;99.90
11908;DHT22;6014;47.690;9.130;2022-08-18T12:41:53;24.60;99.90
11908;DHT22;6014;47.690;9.130;2022-08-18T12:44:25;24.60;99.90
11908;DHT22;6014;47.690;9.130;2022-08-18T12:46:54;25.00;99.90
11908;DHT22;6014;47.690;9.130;2022-08-18T12:49:25;25.20;99.90
11908;DHT22;6014;47.690;9.130;2022-08-18T12:51:55;25.30;99.90
11908;DHT22;6014;47.690;9.130;2022-08-18T12:54:29;25.20;99.90
11908;DHT22;6014;47.690;9.130;2022-08-18T12:57:04;24.80;99.90
11908;DHT22;6014;47.690;9.130;2022-08-18T12:59:35;25.20;99.90
11908;DHT22;6014;47.690;9.130;2022-08-18T13:02:05;25.10;99.90
11908;DHT22;6014;47.690;9.130;2022-08-18T13:04:37;25.50;99.90
11908;DHT22;6014;47.690;9.130;2022-08-18T13:07:05;25.00;99.90
11908;DHT22;6014;47.690;9.130;2022-08-18T13:09:36;25.70;99.90
11908;DHT22;6014;47.690;9.130;2022-08-18T13:12:21;25.60;99.90
11908;DHT22;6014;47.690;9.130;2022-08-18T13:14:52;25.90;99.90
11908;DHT22;6014;47.690;9.130;2022-08-18T13:17:21;25.90;99.90
11908;DHT22;6014;47.690;9.130;2022-08-18T13:20:01;26.00;98.80
11908;DHT22;6014;47.690;9.130;2022-08-18T13:22:31;26.20;98.50
11908;DHT22;6014;47.690;9.130;2022-08-18T13:25:00;25.70;99.50
11908;DHT22;6014;47.690;9.130;2022-08-18T13:27:32;25.30;99.90
11908;DHT22;6014;47.690;9.130;2022-08-18T13:30:05;25.10;99.90
11908;DHT22;6014;47.690;9.130;2022-08-18T13:32:54;25.00;99.90
11908;DHT22;6014;47.690;9.130;2022-08-18T13:35:26;24.70;99.90
11908;DHT22;6014;47.690;9.130;2022-08-18T13:38:01;24.80;99.90
11908;DHT22;6014;47.690;9.130;2022-08-18T13:40:45;24.90;99.90
11908;DHT22;6014;47.690;9.130;2022-08-18T13:43:17;24.90;99.90
11908;DHT22;6014;47.690;9.130;2022-08-18T13:45:49;24.80;99.90
11908;DHT22;6014;47.690;9.130;2022-08-18T13:48:21;24.80;99.90
11908;DHT22;6014;47.690;9.130;2022-08-18T13:50:52;24.50;99.90
11908;DHT22;6014;47.690;9.130;2022-08-18T13:53:22;24.20;99.90
11908;DHT22;6014;47.690;9.130;2022-08-18T13:55:53;24.20;99.90
11908;DHT22;6014;47.690;9.130;2022-08-18T13:58:27;24.10;99.90
11908;DHT22;6014;47.690;9.130;2022-08-18T14:00:57;24.10;99.90
11908;DHT22;6014;47.690;9.130;2022-08-18T14:03:46;24.20;99.90
11908;DHT22;6014;47.690;9.130;2022-08-18T14:06:22;24.20;99.90
11908;DHT22;6014;47.690;9.130;2022-08-18T14:08:52;24.10;99.90
11908;DHT22;6014;47.690;9.130;2022-08-18T14:11:24;23.90;99.90
11908;DHT22;6014;47.690;9.130;2022-08-18T14:14:00;23.90;99.90
11908;DHT22;6014;47.690;9.130;2022-08-18T14:16:30;23.90;99.90
11908;DHT22;6014;47.690;9.130;2022-08-18T14:18:58;23.90;99.90
11908;DHT22;6014;47.690;9.130;2022-08-18T14:21:51;23.80;99.90
11908;DHT22;6014;47.690;9.130;2022-08-18T14:24:39;23.80;99.90
11908;DHT22;6014;47.690;9.130;2022-08-18T14:27:29;23.80;99.90
11908;DHT22;6014;47.690;9.130;2022-08-18T14:30:03;23.90;99.90
11908;DHT22;6014;47.690;9.130;2022-08-18T14:32:33;23.50;99.90
11908;DHT22;6014;47.690;9.130;2022-08-18T14:35:15;23.40;99.90
11908;DHT22;6014;47.690;9.130;2022-08-18T14:38:03;23.30;99.90
11908;DHT22;6014;47.690;9.130;2022-08-18T14:40:36;23.20;99.90
11908;DHT22;6014;47.690;9.130;2022-08-18T14:43:09;23.10;99.90
11908;DHT22;6014;47.690;9.130;2022-08-18T14:45:42;23.00;99.90
11908;DHT22;6014;47.690;9.130;2022-08-18T14:48:16;23.00;99.90
11908;DHT22;6014;47.690;9.130;2022-08-18T14:50:48;22.90;99.90
11908;DHT22;6014;47.690;9.130;2022-08-18T14:53:19;22.80;99.90
11908;DHT22;6014;47.690;9.130;2022-08-18T14:55:50;22.70;99.90
11908;DHT22;6014;47.690;9.130;2022-08-18T14:58:20;22.70;99.90
11908;DHT22;6014;47.690;9.130;2022-08-18T15:00:51;22.60;99.90
11908;DHT22;6014;47.690;9.130;2022-08-18T15:03:23;22.60;99.90
11908;DHT22;6014;47.690;9.130;2022-08-18T15:05:59;22.70;99.90
11908;DHT22;6014;47.690;9.130;2022-08-18T15:08:31;22.60;99.90
11908;DHT22;6014;47.690;9.130;2022-08-18T15:11:02;22.60;99.90
11908;DHT22;6014;47.690;9.130;2022-08-18T15:13:40;22.70;99.90
11908;DHT22;6014;47.690;9.130;2022-08-18T15:16:13;22.60;99.90
11908;DHT22;6014;47.690;9.130;2022-08-18T15:18:44;22.50;99.90
11908;DHT22;6014;47.690;9.130;2022-08-18T15:21:14;22.50;99.90
11908;DHT22;6014;47.690;9.130;2022-08-18T15:24:05;22.50;99.90
11908;DHT22;6014;47.690;9.130;2022-08-18T15:26:58;22.40;99.90
11908;DHT22;6014;47.690;9.130;2022-08-18T15:29:37;22.50;99.90
11908;DHT22;6014;47.690;9.130;2022-08-18T15:32:14;22.40;99.90
11908;DHT22;6014;47.690;9.130;2022-08-18T15:34:43;22.50;99.90
11908;DHT22;6014;47.690;9.130;2022-08-18T15:37:18;22.50;99.90
11908;DHT22;6014;47.690;9.130;2022-08-18T15:39:59;22.50;99.90
11908;DHT22;6014;47.690;9.130;2022-08-18T15:42:28;22.50;99.90
11908;DHT22;6014;47.690;9.130;2022-08-18T15:45:00;22.50;99.90
11908;DHT22;6014;47.690;9.130;2022-08-18T15:47:39;22.50;99.90
11908;DHT22;6014;47.690;9.130;2022-08-18T15:50:09;22.40;99.90
11908;DHT22;6014;47.690;9.130;2022-08-18T15:52:56;22.30;99.90
11908;DHT22;6014;47.690;9.130;2022-08-18T15:55:27;22.30;99.90
11908;DHT22;6014;47.690;9.130;2022-08-18T15:58:03;22.20;99.90
11908;DHT22;6014;47.690;9.130;2022-08-18T16:00:39;22.20;99.90
11908;DHT22;6014;47.690;9.130;2022-08-18T16:03:13;22.20;99.90
11908;DHT22;6014;47.690;9.130;2022-08-18T16:05:47;22.10;99.90
11908;DHT22;6014;47.690;9.130;2022-08-18T16:08:20;22.00;99.90
11908;DHT22;6014;47.690;9.130;2022-08-18T16:10:48;21.90;99.90
11908;DHT22;6014;47.690;9.130;2022-08-18T16:13:17;21.70;99.90
11908;DHT22;6014;47.690;9.130;2022-08-18T16:15:46;21.50;99.90
11908;DHT22;6014;47.690;9.130;2022-08-18T16:18:18;21.20;99.90
11908;DHT22;6014;47.690;9.130;2022-08-18T16:20:47;21.10;99.90
11908;DHT22;6014;47.690;9.130;2022-08-18T16:23:22;20.70;99.90
11908;DHT22;6014;47.690;9.130;2022-08-18T16:25:50;20.40;99.90
11908;DHT22;6014;47.690;9.130;2022-08-18T16:28:19;20.20;99.90
11908;DHT22;6014;47.690;9.130;2022-08-18T16:31:01;19.80;99.90
11908;DHT22;6014;47.690;9.130;2022-08-18T16:33:30;19.50;99.90
11908;DHT22;6014;47.690;9.130;2022-08-18T16:36:02;19.30;99.90
11908;DHT22;6014;47.690;9.130;2022-08-18T16:38:33;19.10;99.90
11908;DHT22;6014;47.690;9.130;2022-08-18T16:41:04;18.90;99.90
11908;DHT22;6014;47.690;9.130;2022-08-18T16:43:41;18.80;99.90
11908;DHT22;6014;47.690;9.130;2022-08-18T16:46:11;18.70;99.90
11908;DHT22;6014;47.690;9.130;2022-08-18T16:48:44;18.60;99.90
11908;DHT22;6014;47.690;9.130;2022-08-18T16:51:14;18.50;99.90
11908;DHT22;6014;47.690;9.130;2022-08-18T16:53:42;18.40;99.90